Time;durP1;ratioP1;P1;durP2;ratioP2;P2;SDS_P1;SDS_P2;PMS_P1;PMS_P2;Temp;Humidity;BMP_temperature;BMP_pressure;BME280_temperature;BME280_humidity;BME280_pressure;Samples;Min_cycle;Max_cycle;Signal;HPM_P1;HPM_P2
2022/06/15 00:01:19;;;;;;;2.30;1.95;;;12.30;99.90;;;;;;5094362;28;20195;-81
2022/06/15 00:03:50;;;;;;;7.45;2.88;;;12.40;99.90;;;;;;5093905;28;20238;-80
2022/06/15 00:06:22;;;;;;;3.30;2.40;;;12.50;99.90;;;;;;5094266;28;20273;-82
2022/06/15 00:08:58;;;;;;;4.75;2.33;;;12.50;99.90;;;;;;5092922;28;20193;-80
2022/06/15 00:11:30;;;;;;;6.03;2.83;;;12.70;99.90;;;;;;5093912;28;20246;-82
2022/06/15 00:14:03;;;;;;;3.58;2.42;;;12.70;99.90;;;;;;5093242;28;20279;-80
2022/06/15 00:16:33;;;;;;;2.90;2.20;;;12.70;99.90;;;;;;5087944;28;20306;-80
2022/06/15 00:19:05;;;;;;;2.97;2.15;;;12.80;99.90;;;;;;5084921;28;20717;-81
2022/06/15 00:21:36;;;;;;;5.75;1.88;;;12.90;99.90;;;;;;5088708;28;20255;-79
2022/06/15 00:24:09;;;;;;;2.90;1.90;;;12.90;99.90;;;;;;5091755;28;20200;-80
2022/06/15 00:26:41;;;;;;;3.97;1.80;;;13.00;99.90;;;;;;5092311;28;20203;-81
2022/06/15 00:29:12;;;;;;;2.33;1.75;;;13.00;99.90;;;;;;5090345;28;20203;-80
2022/06/15 00:31:43;;;;;;;4.80;1.95;;;13.10;99.90;;;;;;5086654;28;20188;-80
2022/06/15 00:34:13;;;;;;;3.60;2.08;;;13.30;99.90;;;;;;5083137;28;20204;-80
2022/06/15 00:36:44;;;;;;;6.18;2.67;;;13.40;99.90;;;;;;5093634;28;20196;-82
2022/06/15 00:39:17;;;;;;;4.57;2.38;;;13.50;99.90;;;;;;5091972;28;20223;-79
2022/06/15 00:41:47;;;;;;;2.55;2.00;;;13.50;99.90;;;;;;5093088;28;20659;-79
2022/06/15 00:44:39;;;;;;;4.65;2.20;;;13.60;99.90;;;;;;5085329;28;20193;-77
2022/06/15 00:47:18;;;;;;;4.10;2.28;;;13.70;99.90;;;;;;5090961;28;20196;-80
2022/06/15 00:49:53;;;;;;;3.45;2.40;;;13.70;99.90;;;;;;5084992;28;20592;-80
2022/06/15 00:52:32;;;;;;;6.40;2.72;;;13.80;99.90;;;;;;5078617;28;20281;-77
2022/06/15 00:55:08;;;;;;;4.72;3.00;;;13.90;99.90;;;;;;5089837;28;20231;-80
2022/06/15 00:57:39;;;;;;;4.32;3.05;;;14.00;99.90;;;;;;5093550;28;20208;-79
2022/06/15 01:00:12;;;;;;;6.30;2.80;;;14.10;99.90;;;;;;5090374;28;20212;-78
2022/06/15 01:02:43;;;;;;;3.42;2.30;;;14.10;99.90;;;;;;5090557;28;20197;-78
2022/06/15 01:05:18;;;;;;;4.85;2.88;;;14.30;99.90;;;;;;5077917;28;20250;-79
2022/06/15 01:08:15;;;;;;;4.45;2.50;;;14.40;99.90;;;;;;5092014;28;20203;-78
2022/06/15 01:11:14;;;;;;;3.65;2.20;;;14.40;99.90;;;;;;5093009;28;20547;-80
2022/06/15 01:14:27;;;;;;;3.50;2.00;;;14.50;99.90;;;;;;5079700;28;20223;-79
2022/06/15 01:17:04;;;;;;;4.47;2.20;;;14.60;99.90;;;;;;5035254;28;20211;-78
2022/06/15 01:20:07;;;;;;;4.97;2.53;;;14.70;99.90;;;;;;5092127;28;20211;-79
2022/06/15 01:23:02;;;;;;;5.13;2.45;;;14.80;99.90;;;;;;5089761;28;20196;-79
2022/06/15 01:25:42;;;;;;;4.38;1.92;;;14.90;99.90;;;;;;5076860;28;20184;-77
2022/06/15 01:28:43;;;;;;;2.90;1.90;;;15.00;99.90;;;;;;5093124;28;20245;-78
2022/06/15 01:31:32;;;;;;;3.00;1.80;;;15.10;99.90;;;;;;5092621;28;20598;-78
2022/06/15 01:34:13;;;;;;;5.93;2.05;;;15.20;99.90;;;;;;5093061;28;20188;-78
2022/06/15 01:36:49;;;;;;;6.60;2.30;;;15.20;99.90;;;;;;5093178;28;20192;-78
2022/06/15 01:39:24;;;;;;;6.20;2.40;;;15.30;99.90;;;;;;5092600;28;20240;-78
2022/06/15 01:42:00;;;;;;;7.07;2.28;;;15.40;99.90;;;;;;5093090;28;20241;-78
2022/06/15 01:44:33;;;;;;;5.47;2.30;;;15.50;99.90;;;;;;5093119;28;20198;-77
2022/06/15 01:47:09;;;;;;;4.15;2.47;;;15.50;99.90;;;;;;5096093;28;20196;-82
2022/06/15 01:49:44;;;;;;;2.80;1.73;;;15.70;99.90;;;;;;5094554;28;20196;-79
2022/06/15 01:52:17;;;;;;;3.95;1.70;;;15.80;99.90;;;;;;5095998;28;20218;-77
2022/06/15 01:54:53;;;;;;;3.67;1.70;;;15.80;99.90;;;;;;5086621;28;20201;-78
2022/06/15 01:57:25;;;;;;;3.95;1.80;;;15.80;99.90;;;;;;5096382;28;20203;-77
2022/06/15 02:00:01;;;;;;;3.60;1.60;;;15.90;99.90;;;;;;5092913;28;20249;-81
2022/06/15 02:02:43;;;;;;;2.40;1.60;;;16.00;99.90;;;;;;5082686;28;20196;-78
2022/06/15 02:05:20;;;;;;;5.32;1.75;;;16.10;99.90;;;;;;5082748;28;20196;-79
2022/06/15 02:07:55;;;;;;;2.58;1.15;;;16.10;99.90;;;;;;5091846;28;20195;-77
2022/06/15 02:10:31;;;;;;;2.30;1.15;;;16.30;99.90;;;;;;5091281;28;20195;-78
2022/06/15 02:13:06;;;;;;;2.63;1.08;;;16.40;99.90;;;;;;5096685;28;20200;-77
2022/06/15 02:15:39;;;;;;;2.10;1.13;;;16.50;99.90;;;;;;5089102;28;20673;-78
2022/06/15 02:18:17;;;;;;;2.90;1.10;;;16.50;99.90;;;;;;5094401;28;20195;-77
2022/06/15 02:20:52;;;;;;;2.58;0.85;;;16.60;99.90;;;;;;5091877;28;20219;-78
2022/06/15 02:23:24;;;;;;;2.92;0.90;;;16.70;99.90;;;;;;5094937;28;20192;-76
2022/06/15 02:25:57;;;;;;;5.95;0.88;;;16.80;99.90;;;;;;5090585;28;20208;-79
2022/06/15 02:28:34;;;;;;;2.05;1.10;;;16.80;99.90;;;;;;5092355;28;20203;-78
2022/06/15 02:31:04;;;;;;;2.55;1.02;;;16.90;99.90;;;;;;5079308;28;20191;-78
2022/06/15 02:33:40;;;;;;;2.00;0.88;;;16.80;99.90;;;;;;5093684;28;20192;-78
2022/06/15 02:36:13;;;;;;;2.35;1.35;;;16.90;99.90;;;;;;5090918;28;20204;-78
2022/06/15 02:38:46;;;;;;;1.60;0.93;;;17.00;99.90;;;;;;5087017;28;20192;-80
2022/06/15 02:41:18;;;;;;;1.88;1.17;;;17.10;99.90;;;;;;5091031;28;20223;-78
2022/06/15 02:43:49;;;;;;;1.25;0.85;;;17.20;99.90;;;;;;5095816;28;20188;-79
2022/06/15 02:46:21;;;;;;;2.13;0.90;;;17.20;99.90;;;;;;5093868;28;20205;-76
2022/06/15 02:48:54;;;;;;;2.03;0.88;;;17.30;99.90;;;;;;5092568;28;20230;-76
2022/06/15 02:51:33;;;;;;;3.35;1.20;;;17.40;99.90;;;;;;5095887;28;20211;-78
2022/06/15 02:54:09;;;;;;;3.13;1.05;;;17.40;99.90;;;;;;5087896;28;20196;-78
2022/06/15 02:56:40;;;;;;;1.85;0.77;;;17.40;99.90;;;;;;5093391;28;20227;-80
2022/06/15 02:59:11;;;;;;;1.88;0.82;;;17.50;99.90;;;;;;5094561;28;20196;-79
2022/06/15 03:01:41;;;;;;;3.50;1.10;;;17.60;99.90;;;;;;5094126;28;20223;-79
2022/06/15 03:04:14;;;;;;;2.47;1.10;;;17.60;99.90;;;;;;5090206;28;20224;-78
2022/06/15 03:06:45;;;;;;;4.28;1.20;;;17.70;99.90;;;;;;5092772;28;20199;-79
2022/06/15 03:09:15;;;;;;;2.13;1.00;;;17.70;99.90;;;;;;5089111;28;20204;-80
2022/06/15 03:11:47;;;;;;;3.25;1.00;;;17.70;99.90;;;;;;5082858;28;20204;-81
2022/06/15 03:14:17;;;;;;;1.63;0.82;;;17.80;99.90;;;;;;5093902;28;20228;-79
2022/06/15 03:16:49;;;;;;;2.53;0.90;;;17.80;99.90;;;;;;5089941;28;20220;-78
2022/06/15 04:26:16;;;;;;;10.20;7.35;;;18.50;99.90;;;;;;5007317;28;20765;-78
2022/06/15 05:06:01;;;;;;;1.38;0.70;;;18.40;99.90;;;;;;5010070;28;20206;-77
2022/06/15 05:13:05;;;;;;;1.13;0.73;;;18.60;99.90;;;;;;4997207;28;20227;-77
2022/06/15 05:19:18;;;;;;;0.85;0.50;;;18.50;99.90;;;;;;5038587;28;20262;-77
2022/06/15 05:26:12;;;;;;;1.70;0.60;;;18.50;99.90;;;;;;4959176;28;20224;-77
2022/06/15 05:33:07;;;;;;;0.68;0.60;;;18.50;99.90;;;;;;4960913;28;20288;-77
2022/06/15 05:39:24;;;;;;;2.25;0.63;;;18.40;99.90;;;;;;5068020;28;20201;-77
2022/06/15 05:45:49;;;;;;;3.08;1.00;;;18.30;99.90;;;;;;5057729;28;20188;-77
2022/06/15 05:58:55;;;;;;;2.88;1.30;;;17.90;99.90;;;;;;5050049;28;20219;-77
2022/06/15 06:12:18;;;;;;;1.10;0.60;;;17.50;99.90;;;;;;4925964;29;20224;-77
2022/06/15 06:50:05;;;;;;;2.28;1.23;;;15.70;99.90;;;;;;4989064;28;20699;-78
2022/06/15 07:00:30;;;;;;;1.42;1.20;;;15.30;99.90;;;;;;4908679;29;20190;-77
2022/06/15 07:18:54;;;;;;;5.53;2.70;;;14.70;99.90;;;;;;4873715;29;20207;-77
2022/06/15 07:43:39;;;;;;;3.40;2.15;;;13.90;99.90;;;;;;4704419;30;20281;-77
2022/06/15 07:50:23;;;;;;;4.10;1.90;;;13.80;99.90;;;;;;4749614;30;20612;-77
2022/06/15 08:03:52;;;;;;;4.43;1.65;;;13.60;99.90;;;;;;4912292;29;20678;-77
2022/06/15 08:10:46;;;;;;;3.78;1.70;;;13.60;99.90;;;;;;4802664;29;20222;-78
2022/06/15 08:13:47;;;;;;;1.88;1.60;;;13.60;99.90;;;;;;4804199;29;20238;-78
2022/06/15 08:30:25;;;;;;;2.10;1.48;;;13.90;99.90;;;;;;4831932;29;20244;-77
2022/06/15 08:40:53;;;;;;;4.47;1.50;;;14.10;99.90;;;;;;4851698;29;20206;-77
2022/06/15 08:47:53;;;;;;;4.45;1.58;;;14.10;99.90;;;;;;4929010;28;20227;-77
2022/06/15 08:54:37;;;;;;;3.97;2.30;;;14.00;99.90;;;;;;4948162;28;20221;-77
2022/06/15 09:04:30;;;;;;;5.30;2.90;;;13.80;99.90;;;;;;5005243;28;20686;-77
2022/06/15 09:07:21;;;;;;;5.18;2.90;;;13.70;99.90;;;;;;5027656;28;20225;-76
2022/06/15 09:10:10;;;;;;;3.97;2.80;;;13.70;99.90;;;;;;5015346;28;20194;-76
2022/06/15 09:13:00;;;;;;;4.10;2.60;;;13.70;99.90;;;;;;5031140;28;20238;-77
2022/06/15 09:15:44;;;;;;;4.70;2.78;;;13.60;99.90;;;;;;5025870;28;20661;-77
2022/06/15 09:18:21;;;;;;;5.45;2.80;;;13.60;99.90;;;;;;5025695;28;20241;-77
2022/06/15 09:20:58;;;;;;;3.83;2.80;;;13.50;99.90;;;;;;5037965;28;20193;-77
2022/06/15 09:23:34;;;;;;;3.45;2.38;;;13.50;99.90;;;;;;5049563;28;20197;-77
2022/06/15 09:26:09;;;;;;;3.08;2.10;;;13.50;99.90;;;;;;5047327;28;20197;-77
2022/06/15 09:28:44;;;;;;;3.38;2.10;;;13.50;99.90;;;;;;5047944;28;20196;-77
2022/06/15 09:31:19;;;;;;;3.65;1.90;;;13.50;99.90;;;;;;5047035;28;20192;-77
2022/06/15 09:33:55;;;;;;;2.58;1.95;;;13.50;99.90;;;;;;5048627;28;20673;-77
2022/06/15 09:36:31;;;;;;;2.55;1.67;;;13.50;99.90;;;;;;5046551;28;20197;-76
2022/06/15 09:39:02;;;;;;;3.58;1.80;;;13.50;99.90;;;;;;5048855;28;20197;-77
2022/06/15 09:41:39;;;;;;;5.53;1.98;;;13.50;99.90;;;;;;5048352;28;20205;-77
2022/06/15 09:44:22;;;;;;;3.70;2.00;;;13.60;99.90;;;;;;5049643;28;20209;-76
2022/06/15 09:46:59;;;;;;;2.42;1.70;;;13.60;99.90;;;;;;5039173;28;20755;-77
2022/06/15 09:49:45;;;;;;;145.50;95.75;;;13.50;99.90;;;;;;5048452;28;20204;-77
2022/06/15 09:52:25;;;;;;;27.58;16.92;;;13.60;99.90;;;;;;5050509;28;20189;-77
2022/06/15 09:55:07;;;;;;;8.23;6.25;;;13.50;99.90;;;;;;5046707;28;20190;-77
2022/06/15 09:57:39;;;;;;;8.23;5.65;;;13.50;99.90;;;;;;5033173;28;20206;-76
2022/06/15 10:00:14;;;;;;;4.70;2.15;;;13.40;99.90;;;;;;5046387;28;20224;-77
2022/06/15 10:02:48;;;;;;;3.30;2.30;;;13.40;99.90;;;;;;5049750;28;20220;-77
2022/06/15 10:05:26;;;;;;;5.63;2.10;;;13.40;99.90;;;;;;5047443;28;20256;-76
2022/06/15 10:08:01;;;;;;;4.15;2.45;;;13.30;99.90;;;;;;5087824;28;20585;-76
2022/06/15 10:10:34;;;;;;;4.72;2.50;;;13.30;99.90;;;;;;5093813;28;20192;-77
2022/06/15 10:13:26;;;;;;;3.38;1.95;;;13.30;99.90;;;;;;5083113;28;20698;-76
2022/06/15 10:15:59;;;;;;;2.92;2.15;;;13.30;99.90;;;;;;5089592;28;20318;-77
2022/06/15 10:18:38;;;;;;;3.85;2.00;;;13.30;99.90;;;;;;5088158;28;20203;-77
2022/06/15 10:21:20;;;;;;;4.43;2.30;;;13.30;99.90;;;;;;5095146;28;20200;-76
2022/06/15 10:24:09;;;;;;;4.57;2.42;;;13.30;99.90;;;;;;5095354;28;20196;-76
2022/06/15 10:26:45;;;;;;;3.90;2.30;;;13.30;99.90;;;;;;5093766;28;20282;-76
2022/06/15 10:29:32;;;;;;;3.50;2.10;;;13.30;99.90;;;;;;5093980;28;20253;-76
2022/06/15 10:32:08;;;;;;;4.40;2.50;;;13.30;99.90;;;;;;5087588;28;20542;-77
2022/06/15 10:34:52;;;;;;;5.50;2.60;;;13.30;99.90;;;;;;5091668;28;20283;-77
2022/06/15 10:37:25;;;;;;;3.30;2.30;;;13.30;99.90;;;;;;5081335;28;20255;-77
2022/06/15 10:40:00;;;;;;;5.75;2.40;;;13.30;99.90;;;;;;5087751;28;20673;-76
2022/06/15 10:42:37;;;;;;;5.25;2.40;;;13.30;99.90;;;;;;5094065;28;20222;-76
2022/06/15 10:45:11;;;;;;;4.20;2.03;;;13.30;99.90;;;;;;5091024;28;20200;-76
2022/06/15 10:47:48;;;;;;;3.63;2.00;;;13.30;99.90;;;;;;5096094;28;20624;-77
2022/06/15 10:50:26;;;;;;;4.43;1.80;;;13.30;99.90;;;;;;5086591;28;20284;-76
2022/06/15 10:53:02;;;;;;;3.20;1.70;;;13.30;99.90;;;;;;5096090;28;20195;-77
2022/06/15 11:04:12;;;;;;;2.95;1.50;;;13.40;99.90;;;;;;5087618;28;20215;-76
2022/06/15 11:06:47;;;;;;;3.85;1.55;;;13.40;99.90;;;;;;5082598;28;20729;-76
2022/06/15 11:09:32;;;;;;;3.38;1.70;;;13.40;99.90;;;;;;5092652;28;20200;-76
2022/06/15 11:12:10;;;;;;;3.45;1.65;;;13.40;99.90;;;;;;5085553;28;20231;-77
2022/06/15 11:14:50;;;;;;;3.42;1.90;;;13.40;99.90;;;;;;5090542;28;20196;-76
2022/06/15 11:20:30;;;;;;;2.70;1.70;;;13.30;99.90;;;;;;5086979;28;20199;-76
2022/06/15 11:23:08;;;;;;;2.90;1.80;;;13.30;99.90;;;;;;5085536;28;22058;-77
2022/06/15 11:25:45;;;;;;;3.50;1.90;;;13.20;99.90;;;;;;5087735;28;20242;-77
2022/06/15 11:28:24;;;;;;;3.90;1.70;;;13.20;99.90;;;;;;5085920;28;20600;-76
2022/06/15 11:31:00;;;;;;;2.75;1.75;;;13.30;99.90;;;;;;5084352;28;20271;-77
2022/06/15 11:33:39;;;;;;;2.35;1.63;;;13.20;99.90;;;;;;5090995;28;20196;-77
2022/06/15 11:36:22;;;;;;;2.15;1.67;;;13.20;99.90;;;;;;5086299;28;20704;-77
2022/06/15 11:38:57;;;;;;;4.20;1.80;;;13.20;99.90;;;;;;5091624;28;20235;-77
2022/06/15 11:41:31;;;;;;;2.70;1.88;;;13.20;99.90;;;;;;5092441;28;20203;-78
2022/06/15 11:44:09;;;;;;;2.63;1.90;;;13.10;99.90;;;;;;5091926;28;20239;-77
2022/06/15 11:46:51;;;;;;;4.22;1.60;;;13.10;99.90;;;;;;5081161;28;20203;-76
2022/06/15 11:49:32;;;;;;;3.63;1.80;;;13.10;99.90;;;;;;5086700;28;20643;-76
2022/06/15 11:52:26;;;;;;;3.50;1.73;;;13.00;99.90;;;;;;5087486;28;20203;-77
2022/06/15 11:55:33;;;;;;;2.65;1.55;;;13.10;99.90;;;;;;5091894;28;20196;-76
2022/06/15 11:58:22;;;;;;;3.47;1.70;;;13.10;99.90;;;;;;5036366;28;20204;-76
2022/06/15 12:01:03;;;;;;;4.47;1.65;;;13.00;99.90;;;;;;5084632;28;20198;-76
2022/06/15 12:04:12;;;;;;;2.70;1.55;;;13.00;99.90;;;;;;5087638;28;20678;-76
2022/06/15 12:06:50;;;;;;;4.78;1.90;;;12.90;99.90;;;;;;5088038;28;20593;-77
2022/06/15 12:09:31;;;;;;;4.85;2.00;;;13.00;99.90;;;;;;5087670;28;20200;-76
2022/06/15 12:15:04;;;;;;;3.88;2.25;;;12.90;99.90;;;;;;5089876;28;20199;-77
2022/06/15 12:17:45;;;;;;;3.60;1.90;;;12.90;99.90;;;;;;5086643;28;20203;-76
2022/06/15 12:20:25;;;;;;;2.35;1.77;;;12.80;99.90;;;;;;5087090;28;20192;-76
2022/06/15 12:23:03;;;;;;;5.03;1.85;;;12.80;99.90;;;;;;5087208;28;20243;-77
2022/06/15 12:25:43;;;;;;;4.38;2.25;;;12.80;99.90;;;;;;5089670;28;20595;-77
2022/06/15 12:28:19;;;;;;;3.85;2.15;;;12.80;99.90;;;;;;5084718;28;20204;-77
2022/06/15 12:30:54;;;;;;;3.20;2.00;;;12.70;99.90;;;;;;5082798;28;20324;-77
2022/06/15 12:33:37;;;;;;;3.45;2.08;;;12.70;99.90;;;;;;5086340;28;20222;-77
2022/06/15 12:36:22;;;;;;;2.35;1.90;;;12.60;99.90;;;;;;5086561;28;20184;-77
2022/06/15 12:39:00;;;;;;;3.80;2.10;;;12.60;99.90;;;;;;5081631;28;20261;-77
2022/06/15 12:44:23;;;;;;;3.53;2.08;;;12.50;99.90;;;;;;5085565;28;20208;-77
2022/06/15 12:46:55;;;;;;;2.80;2.20;;;12.40;99.90;;;;;;5085673;28;20191;-77
2022/06/15 12:49:34;;;;;;;2.42;1.77;;;12.30;99.90;;;;;;5092779;28;20635;-76
2022/06/15 12:52:11;;;;;;;3.50;1.80;;;12.30;99.90;;;;;;5081803;28;20639;-76
2022/06/15 12:54:51;;;;;;;4.03;2.05;;;12.30;99.90;;;;;;5090790;28;20195;-76
2022/06/15 12:57:30;;;;;;;3.10;1.90;;;12.20;99.90;;;;;;5085016;28;20284;-77
2022/06/15 13:00:09;;;;;;;3.92;2.00;;;12.30;99.90;;;;;;5084400;28;20200;-76
2022/06/15 13:02:45;;;;;;;2.38;1.80;;;12.30;99.90;;;;;;5083810;28;20223;-76
2022/06/15 13:05:25;;;;;;;3.45;1.90;;;12.20;99.90;;;;;;5090537;28;20697;-76
2022/06/15 13:08:25;;;;;;;3.50;2.05;;;12.20;99.90;;;;;;5087828;28;20272;-76
2022/06/15 13:11:14;;;;;;;2.45;1.88;;;12.30;99.90;;;;;;5081081;28;20197;-76
2022/06/15 13:13:48;;;;;;;3.00;1.90;;;12.30;99.90;;;;;;5091899;28;20196;-77
2022/06/15 13:16:32;;;;;;;2.95;1.80;;;12.30;99.90;;;;;;5081878;28;20243;-77
2022/06/15 13:19:04;;;;;;;2.25;1.55;;;12.30;99.90;;;;;;5083640;28;20200;-76
2022/06/15 13:21:53;;;;;;;2.38;1.45;;;12.30;99.90;;;;;;5092588;28;20192;-77
2022/06/15 13:24:24;;;;;;;2.55;1.50;;;12.40;99.90;;;;;;5093266;28;20634;-77
2022/06/15 13:26:59;;;;;;;2.25;1.50;;;12.40;99.90;;;;;;5092590;28;20189;-77
2022/06/15 13:29:33;;;;;;;2.47;1.50;;;12.50;99.90;;;;;;5087650;28;20200;-77
2022/06/15 13:32:06;;;;;;;2.15;1.60;;;12.50;99.90;;;;;;5090652;28;20238;-77
2022/06/15 13:34:52;;;;;;;2.10;1.40;;;12.50;99.90;;;;;;5091896;28;20195;-77
2022/06/15 13:37:35;;;;;;;1.45;1.30;;;12.60;99.90;;;;;;5093036;28;20228;-77
2022/06/15 13:40:12;;;;;;;2.30;1.08;;;12.60;99.90;;;;;;5092013;28;20192;-77
2022/06/15 13:43:02;;;;;;;1.70;1.20;;;12.60;99.90;;;;;;5095629;28;20739;-77
2022/06/15 13:45:44;;;;;;;1.10;0.98;;;12.60;99.90;;;;;;5093819;28;20222;-77
2022/06/15 13:48:19;;;;;;;2.00;1.25;;;12.70;99.90;;;;;;5096467;28;20196;-77
2022/06/15 13:50:51;;;;;;;1.10;1.00;;;12.70;99.90;;;;;;5093439;28;20196;-76
2022/06/15 13:53:32;;;;;;;1.17;1.10;;;12.70;99.90;;;;;;5095141;28;20550;-76
2022/06/15 13:56:07;;;;;;;1.75;1.13;;;12.70;99.90;;;;;;5093597;28;20195;-76
2022/06/15 13:59:09;;;;;;;2.95;1.25;;;12.70;99.90;;;;;;5093051;28;20637;-76
2022/06/15 14:02:11;;;;;;;2.50;1.10;;;12.70;99.90;;;;;;5085928;28;20207;-76
2022/06/15 14:05:06;;;;;;;1.50;1.17;;;12.60;99.90;;;;;;5086862;28;20280;-76
2022/06/15 14:07:56;;;;;;;2.50;1.30;;;12.60;99.90;;;;;;5090204;28;20196;-76
2022/06/15 14:10:45;;;;;;;2.40;1.40;;;12.60;99.90;;;;;;5094785;28;20192;-76
2022/06/15 14:13:48;;;;;;;3.55;1.38;;;12.60;99.90;;;;;;5094373;28;20240;-76
2022/06/15 14:17:11;;;;;;;2.47;1.23;;;12.50;99.90;;;;;;5067076;28;20615;-76
2022/06/15 14:19:44;;;;;;;2.53;1.65;;;12.50;99.90;;;;;;5094962;28;20188;-76
2022/06/15 14:22:18;;;;;;;2.65;1.60;;;12.40;99.90;;;;;;5091369;28;20267;-77
2022/06/15 14:25:01;;;;;;;3.10;1.70;;;12.40;99.90;;;;;;5093577;28;20235;-75
2022/06/15 14:27:36;;;;;;;5.13;1.50;;;12.40;99.90;;;;;;5095082;28;20231;-75
2022/06/15 14:30:18;;;;;;;3.63;1.90;;;12.30;99.90;;;;;;5089581;28;20195;-75
2022/06/15 14:32:57;;;;;;;2.10;1.45;;;12.30;99.90;;;;;;5089055;28;20220;-75
2022/06/15 14:35:28;;;;;;;3.15;1.40;;;12.30;99.90;;;;;;5091977;28;21113;-76
2022/06/15 14:38:01;;;;;;;2.95;1.58;;;12.30;99.90;;;;;;5095833;28;20180;-75
2022/06/15 14:40:35;;;;;;;3.00;1.30;;;12.30;99.90;;;;;;5096008;28;20283;-75
2022/06/15 14:43:09;;;;;;;2.33;1.60;;;12.30;99.90;;;;;;5092063;28;20240;-75
2022/06/15 14:45:42;;;;;;;4.07;1.60;;;12.20;99.90;;;;;;5089963;28;20196;-75
2022/06/15 14:48:17;;;;;;;1.80;1.15;;;12.20;99.90;;;;;;5090643;28;20196;-75
2022/06/15 14:50:48;;;;;;;4.35;1.40;;;12.20;99.90;;;;;;5092128;28;20185;-75
2022/06/15 14:53:21;;;;;;;2.03;1.13;;;12.10;99.90;;;;;;5088996;28;20201;-77
2022/06/15 14:55:51;;;;;;;4.95;1.50;;;12.10;99.90;;;;;;5087953;28;20200;-76
2022/06/15 14:58:24;;;;;;;2.28;1.38;;;12.10;99.90;;;;;;5086352;28;20209;-77
2022/06/15 15:01:09;;;;;;;2.45;1.50;;;12.10;99.90;;;;;;5089862;28;20208;-76
2022/06/15 15:03:42;;;;;;;3.50;1.83;;;12.00;99.90;;;;;;5090046;28;20219;-76
2022/06/15 15:06:17;;;;;;;3.70;1.60;;;12.00;99.90;;;;;;5086348;28;20188;-77
2022/06/15 15:08:50;;;;;;;3.28;1.38;;;11.90;99.90;;;;;;5089815;28;20191;-76
2022/06/15 15:11:34;;;;;;;5.78;1.40;;;11.90;99.90;;;;;;5083906;28;20283;-76
2022/06/15 15:14:09;;;;;;;1.95;1.17;;;11.90;99.90;;;;;;5082701;28;20272;-76
2022/06/15 15:16:44;;;;;;;2.05;1.40;;;11.90;99.90;;;;;;5087548;28;20220;-76
2022/06/15 15:19:28;;;;;;;2.17;1.40;;;11.80;99.90;;;;;;5080194;28;20719;-77
2022/06/15 15:22:05;;;;;;;3.22;1.30;;;11.90;99.90;;;;;;5091105;28;20665;-76
2022/06/15 15:24:38;;;;;;;2.80;1.33;;;11.80;99.90;;;;;;5089650;28;20630;-76
2022/06/15 15:27:15;;;;;;;0.82;0.82;;;11.80;99.90;;;;;;5088502;28;20573;-76
2022/06/15 15:36:02;;;;;;;1.80;1.00;;;11.90;99.90;;;;;;5078418;28;20606;-76
2022/06/15 15:38:33;;;;;;;1.10;1.00;;;11.90;99.90;;;;;;5047129;28;20553;-76
2022/06/15 15:41:06;;;;;;;1.90;1.10;;;11.90;99.90;;;;;;5087699;28;20196;-76
2022/06/15 15:43:38;;;;;;;1.13;0.80;;;11.90;99.90;;;;;;5092005;28;20308;-76
2022/06/15 15:46:11;;;;;;;2.17;1.30;;;11.90;99.90;;;;;;5092937;28;20583;-75
2022/06/15 15:48:41;;;;;;;3.50;0.98;;;11.80;99.90;;;;;;5085867;28;20288;-76
2022/06/15 15:51:12;;;;;;;1.75;1.20;;;11.80;99.90;;;;;;5090186;28;20199;-76
2022/06/15 15:53:43;;;;;;;1.70;1.30;;;11.80;99.90;;;;;;5079060;28;20212;-76
2022/06/15 15:56:13;;;;;;;1.83;1.40;;;11.80;99.90;;;;;;5088505;28;20189;-76
2022/06/15 15:58:46;;;;;;;2.03;1.20;;;11.80;99.90;;;;;;5082236;28;20194;-76
2022/06/15 16:01:20;;;;;;;2.05;1.52;;;11.70;99.90;;;;;;5085018;28;20599;-76
2022/06/15 16:03:50;;;;;;;2.03;1.20;;;11.70;99.90;;;;;;5080932;28;20205;-75
2022/06/15 16:06:21;;;;;;;3.03;1.35;;;11.70;99.90;;;;;;5086464;28;20189;-76
2022/06/15 16:08:51;;;;;;;2.03;1.30;;;11.70;99.90;;;;;;5087384;28;20598;-76
2022/06/15 16:11:22;;;;;;;2.92;1.52;;;11.60;99.90;;;;;;5086359;28;20209;-76
2022/06/15 16:13:53;;;;;;;2.45;1.25;;;11.60;99.90;;;;;;5093800;28;20204;-75
2022/06/15 16:16:26;;;;;;;1.92;1.23;;;11.50;99.90;;;;;;5081527;28;20228;-76
2022/06/15 16:18:57;;;;;;;4.40;1.27;;;11.30;99.90;;;;;;5078229;28;20197;-76
2022/06/15 16:21:28;;;;;;;2.95;1.45;;;11.20;99.90;;;;;;5090670;28;20663;-76
2022/06/15 16:23:58;;;;;;;2.92;1.23;;;11.10;99.90;;;;;;5092818;28;20236;-76
2022/06/15 16:26:29;;;;;;;2.40;1.40;;;11.00;99.90;;;;;;5082116;28;20196;-76
2022/06/15 16:29:01;;;;;;;3.13;1.83;;;10.80;99.90;;;;;;5088434;28;20192;-76
2022/06/15 16:31:34;;;;;;;3.22;1.98;;;10.80;99.90;;;;;;5084202;28;20193;-76
2022/06/15 16:34:17;;;;;;;2.95;1.77;;;10.60;99.90;;;;;;5082636;28;20561;-76
2022/06/15 16:36:48;;;;;;;2.17;1.58;;;10.60;99.90;;;;;;5085723;28;20192;-76
2022/06/15 16:39:19;;;;;;;3.53;1.60;;;10.60;99.90;;;;;;5081616;28;20189;-76
2022/06/15 16:41:50;;;;;;;5.03;1.40;;;10.50;99.90;;;;;;5087741;28;20196;-76
2022/06/15 16:44:20;;;;;;;3.40;1.52;;;10.50;99.90;;;;;;5088300;28;20216;-76
2022/06/15 16:46:53;;;;;;;2.30;1.50;;;10.50;99.90;;;;;;5086780;28;20192;-76
2022/06/15 16:49:24;;;;;;;3.05;1.50;;;10.60;99.90;;;;;;5086243;28;20196;-77
2022/06/15 16:51:57;;;;;;;2.28;1.50;;;10.60;99.90;;;;;;5092551;28;20197;-76
2022/06/15 16:54:29;;;;;;;2.00;1.15;;;10.60;99.90;;;;;;5082981;28;20192;-75
2022/06/15 16:56:59;;;;;;;1.52;1.23;;;10.70;99.90;;;;;;5080906;28;20655;-76
2022/06/15 16:59:33;;;;;;;3.75;1.10;;;10.70;99.90;;;;;;5088414;28;20196;-76
2022/06/15 17:02:06;;;;;;;1.65;1.00;;;10.80;99.90;;;;;;5091027;28;20232;-76
2022/06/15 17:04:37;;;;;;;2.25;1.08;;;10.90;99.90;;;;;;5085996;28;20247;-76
2022/06/15 17:07:12;;;;;;;4.50;1.70;;;11.00;99.90;;;;;;5084774;28;20697;-76
2022/06/15 17:09:43;;;;;;;1.63;1.10;;;11.00;99.90;;;;;;5089627;28;20198;-76
2022/06/15 17:12:14;;;;;;;2.78;1.38;;;11.10;99.90;;;;;;5080563;28;20240;-76
2022/06/15 17:14:45;;;;;;;2.15;1.20;;;11.10;99.90;;;;;;5081746;28;20288;-76
2022/06/15 17:17:18;;;;;;;1.55;1.00;;;11.20;99.90;;;;;;5083835;28;20242;-76
2022/06/15 17:19:49;;;;;;;1.10;0.95;;;11.20;99.90;;;;;;5089445;28;20192;-76
2022/06/15 17:22:20;;;;;;;1.58;1.10;;;11.20;99.90;;;;;;5084703;28;20674;-76
2022/06/15 17:24:51;;;;;;;1.83;1.10;;;11.30;99.90;;;;;;5082886;28;20215;-76
2022/06/15 17:27:22;;;;;;;2.63;1.20;;;11.30;99.90;;;;;;5089068;28;20291;-75
2022/06/15 17:29:52;;;;;;;2.10;0.88;;;11.40;99.90;;;;;;5088698;28;20196;-75
2022/06/15 17:32:25;;;;;;;1.00;0.90;;;11.30;99.90;;;;;;5079807;28;20822;-75
2022/06/15 17:34:56;;;;;;;1.85;1.00;;;11.40;99.90;;;;;;5091023;28;20200;-76
2022/06/15 17:37:27;;;;;;;2.03;0.90;;;11.40;99.90;;;;;;5086813;28;20197;-76
2022/06/15 17:39:57;;;;;;;2.67;0.90;;;11.40;99.90;;;;;;5082805;28;20193;-76
2022/06/15 17:42:29;;;;;;;1.48;0.90;;;11.30;99.90;;;;;;5085844;28;20246;-76
2022/06/15 17:45:00;;;;;;;2.17;1.27;;;11.30;99.90;;;;;;5082776;28;20216;-76
2022/06/15 17:47:32;;;;;;;2.00;1.40;;;11.30;99.90;;;;;;5090896;28;20203;-76
2022/06/15 17:50:03;;;;;;;2.42;1.60;;;11.20;99.90;;;;;;5082230;28;20196;-76
2022/06/15 17:52:33;;;;;;;4.43;2.22;;;11.10;99.90;;;;;;5089855;28;20196;-76
2022/06/15 17:55:04;;;;;;;3.28;2.40;;;11.00;99.90;;;;;;5081402;28;20201;-76
2022/06/15 17:57:36;;;;;;;5.65;2.70;;;10.90;99.90;;;;;;5088180;28;20298;-76
2022/06/15 18:00:08;;;;;;;6.20;2.70;;;10.80;99.90;;;;;;5093002;28;20639;-76
2022/06/15 18:02:43;;;;;;;7.20;3.40;;;10.80;99.90;;;;;;5090377;28;20545;-75
2022/06/15 18:05:14;;;;;;;5.22;3.20;;;10.70;99.90;;;;;;5091371;28;20212;-75
2022/06/15 18:07:44;;;;;;;5.50;3.67;;;10.60;99.90;;;;;;5092017;28;20701;-76
2022/06/15 18:10:15;;;;;;;6.63;3.55;;;10.60;99.90;;;;;;5092995;28;20551;-76
2022/06/15 18:12:46;;;;;;;7.25;4.03;;;10.50;99.90;;;;;;5091044;28;20239;-75
2022/06/15 18:15:21;;;;;;;5.55;3.75;;;10.50;99.90;;;;;;5088146;28;20692;-75
2022/06/15 18:17:54;;;;;;;7.00;3.72;;;10.50;99.90;;;;;;5089513;28;20203;-75
2022/06/15 18:20:30;;;;;;;6.50;3.70;;;10.40;99.90;;;;;;5091424;28;20193;-76
2022/06/15 18:23:01;;;;;;;8.75;3.83;;;10.30;99.90;;;;;;5092909;28;20558;-75
2022/06/15 18:25:32;;;;;;;7.82;3.70;;;10.30;99.90;;;;;;5091508;28;20212;-76
2022/06/15 18:28:03;;;;;;;5.03;3.35;;;10.30;99.90;;;;;;5092326;28;20602;-75
2022/06/15 18:30:34;;;;;;;7.95;3.65;;;10.30;99.90;;;;;;5096561;28;20188;-75
2022/06/15 18:33:07;;;;;;;7.28;3.42;;;10.20;99.90;;;;;;5094977;28;20203;-75
2022/06/15 18:35:39;;;;;;;6.97;4.10;;;10.20;99.90;;;;;;5092662;28;20196;-76
2022/06/15 18:38:11;;;;;;;7.10;3.40;;;10.20;99.90;;;;;;5094059;28;20200;-75
2022/06/15 18:40:43;;;;;;;7.43;3.60;;;10.10;99.90;;;;;;5092477;28;20220;-76
2022/06/15 18:48:49;;;;;;;7.30;3.30;;;9.90;99.90;;;;;;5092189;28;20203;-75
2022/06/15 18:51:21;;;;;;;5.75;3.03;;;9.90;99.90;;;;;;5090807;28;20196;-75